createdAt,value
2023-11-04T00:00:08.733Z,83.1
2023-11-04T00:01:23.144Z,83
2023-11-04T00:02:37.471Z,83.1
2023-11-04T00:03:51.751Z,83
2023-11-04T00:05:06.020Z,83.2
2023-11-04T00:06:20.429Z,83.5
2023-11-04T00:07:34.767Z,83.7
2023-11-04T00:08:49.048Z,83.7
2023-11-04T00:10:03.464Z,83.9
2023-11-04T00:11:17.879Z,84.2
2023-11-04T00:12:32.189Z,83.9
2023-11-04T00:13:46.489Z,84
2023-11-04T00:15:00.764Z,84.2
2023-11-04T00:16:15.171Z,84.2
2023-11-04T00:17:29.485Z,84.3
2023-11-04T00:18:43.779Z,84.2
2023-11-04T00:19:58.052Z,84.4
2023-11-04T00:21:12.455Z,84.3
2023-11-04T00:22:26.789Z,84.2
2023-11-04T00:23:41.059Z,84.3
2023-11-04T00:24:55.355Z,84.2
2023-11-04T00:26:09.760Z,84.5
2023-11-04T00:27:24.079Z,84.4
2023-11-04T00:28:38.367Z,84.6
2023-11-04T00:29:52.756Z,84.6
2023-11-04T00:31:07.172Z,84.6
2023-11-04T00:32:21.496Z,84.4
2023-11-04T00:33:35.787Z,84.4
2023-11-04T00:34:50.051Z,84.3
2023-11-04T00:36:04.477Z,84.5
2023-11-04T00:37:18.787Z,84.6
2023-11-04T00:38:33.069Z,84.4
2023-11-04T00:39:47.350Z,84.6
2023-11-04T00:41:01.759Z,84.4
2023-11-04T00:42:16.079Z,84.5
2023-11-04T00:43:30.358Z,84.7
2023-11-04T00:44:44.654Z,84.5
2023-11-04T00:45:59.059Z,84.6
2023-11-04T00:47:13.382Z,84.5
2023-11-04T00:48:27.653Z,84.5
2023-11-04T00:49:42.094Z,84.3
2023-11-04T00:50:56.485Z,84.3
2023-11-04T00:52:10.821Z,84.3
2023-11-04T00:53:25.094Z,84.4
2023-11-04T00:54:39.376Z,84.5
2023-11-04T00:55:53.778Z,84.6
2023-11-04T00:57:08.114Z,84.6
2023-11-04T00:58:22.398Z,84.9
2023-11-04T00:59:36.676Z,84.9
2023-11-04T01:00:51.084Z,84.9
2023-11-04T01:02:05.402Z,84.9
2023-11-04T01:03:19.681Z,84.9
2023-11-04T01:04:33.976Z,85
2023-11-04T01:05:48.374Z,85.1
2023-11-04T01:07:02.706Z,85.1
2023-11-04T01:08:16.987Z,85
2023-11-04T01:09:31.272Z,85.2
2023-11-04T01:10:45.670Z,85.2
2023-11-04T01:11:59.995Z,85.1
2023-11-04T01:13:14.268Z,85
2023-11-04T01:14:28.553Z,85
2023-11-04T01:15:42.967Z,85.1
2023-11-04T01:16:57.297Z,85.4
2023-11-04T01:18:11.562Z,85.5
2023-11-04T01:19:25.854Z,85.3
2023-11-04T01:20:40.325Z,85.5
2023-11-04T01:21:54.651Z,85.5
2023-11-04T01:23:08.052Z,85.8
2023-11-04T01:24:22.411Z,85.8
2023-11-04T01:25:36.806Z,85.8
2023-11-04T01:26:51.146Z,86
2023-11-04T01:28:04.491Z,86.1
2023-11-04T01:29:18.768Z,86.2
2023-11-04T01:30:33.191Z,86.1
2023-11-04T01:31:47.516Z,86.2
2023-11-04T01:33:01.780Z,86.3
2023-11-04T01:34:16.079Z,86.3
2023-11-04T01:35:30.479Z,86.4
2023-11-04T01:36:44.794Z,86.3
2023-11-04T01:37:59.081Z,86.3
2023-11-04T01:39:13.496Z,86.5
2023-11-04T01:40:27.897Z,86.4
2023-11-04T01:41:42.211Z,86.7
2023-11-04T01:42:56.493Z,86.6
2023-11-04T01:44:10.776Z,86.6
2023-11-04T01:45:25.180Z,86.5
2023-11-04T01:46:39.514Z,86.2
2023-11-04T01:47:53.000Z,86
2023-11-04T01:49:08.072Z,86.2
2023-11-04T01:50:22.491Z,86.2
2023-11-04T01:51:36.809Z,86.3
2023-11-04T01:52:51.085Z,86.2
2023-11-04T01:54:05.361Z,86
2023-11-04T01:55:19.783Z,85.8
2023-11-04T01:56:34.096Z,85.5
2023-11-04T01:59:02.658Z,85.6
2023-11-04T02:00:17.072Z,85.7
2023-11-04T02:01:31.394Z,85.8
2023-11-04T02:02:45.679Z,85.9
2023-11-04T02:03:59.952Z,86
2023-11-04T02:05:14.374Z,86.2
2023-11-04T02:06:28.681Z,86.2
2023-11-04T02:07:42.978Z,86.3
2023-11-04T02:08:57.242Z,86.3
2023-11-04T02:10:11.658Z,86.5
2023-11-04T02:11:25.977Z,86.7
2023-11-04T02:12:40.258Z,86.7
2023-11-04T02:13:54.549Z,86.6
2023-11-04T02:15:08.958Z,86.6
2023-11-04T02:16:23.269Z,86
2023-11-04T02:17:37.553Z,85.5
2023-11-04T02:18:51.831Z,85.2
2023-11-04T02:20:06.254Z,85.3
2023-11-04T02:21:20.576Z,85.2
2023-11-04T02:22:34.845Z,85.3
2023-11-04T02:23:49.000Z,85.3
2023-11-04T02:25:03.606Z,85.5
2023-11-04T02:26:17.942Z,85.5
2023-11-04T02:27:31.292Z,85.6
2023-11-04T02:28:45.569Z,85.6
2023-11-04T02:29:59.986Z,85.4
2023-11-04T02:31:14.298Z,85.5
2023-11-04T02:32:28.582Z,85.8
2023-11-04T02:33:42.866Z,85.6
2023-11-04T02:34:57.272Z,85.6
2023-11-04T02:36:11.605Z,85.4
2023-11-04T02:37:25.873Z,85.5
2023-11-04T02:38:40.155Z,85.3
2023-11-04T02:39:54.564Z,85.4
2023-11-04T02:41:08.891Z,85.3
2023-11-04T02:42:23.175Z,85.4
2023-11-04T02:43:37.444Z,85.2
2023-11-04T02:44:51.854Z,85.2
2023-11-04T02:46:06.184Z,85.3
2023-11-04T02:47:20.469Z,85.2
2023-11-04T02:48:34.738Z,85.2
2023-11-04T02:49:49.146Z,85.1
2023-11-04T02:51:03.473Z,85.2
2023-11-04T02:52:17.756Z,85
2023-11-04T02:53:32.041Z,84.9
2023-11-04T02:54:46.439Z,85.1
2023-11-04T02:56:00.779Z,85.1
2023-11-04T02:57:15.054Z,85.3
2023-11-04T02:58:29.399Z,85.3
2023-11-04T02:59:43.802Z,85.4
2023-11-04T03:00:58.142Z,85.6
2023-11-04T03:02:11.541Z,85.6
2023-11-04T03:03:24.929Z,85.6
2023-11-04T03:04:39.261Z,85.6
2023-11-04T03:05:52.620Z,85.6
2023-11-04T03:07:06.890Z,85.3
2023-11-04T03:08:21.300Z,85.4
2023-11-04T03:09:35.624Z,84.9
2023-11-04T03:10:49.919Z,85.1
2023-11-04T03:12:04.192Z,85.1
2023-11-04T03:13:18.597Z,85.2
2023-11-04T03:14:32.916Z,85.2
2023-11-04T03:15:47.213Z,85.2
2023-11-04T03:17:01.477Z,84.8
2023-11-04T03:18:15.890Z,84.9
2023-11-04T03:19:30.212Z,85.1
2023-11-04T03:20:44.494Z,84.8
2023-11-04T03:21:58.791Z,84.7
2023-11-04T03:23:13.192Z,85
2023-11-04T03:24:27.507Z,84.7
2023-11-04T03:25:41.790Z,84.6
2023-11-04T03:26:56.065Z,84.7
2023-11-04T03:28:10.482Z,84.8
2023-11-04T03:29:24.804Z,84.7
2023-11-04T03:30:39.098Z,84.9
2023-11-04T03:31:53.363Z,84.7
2023-11-04T03:33:07.779Z,84.7
2023-11-04T03:34:22.100Z,84.7
2023-11-04T03:35:36.378Z,84.8
2023-11-04T03:36:50.728Z,84.7
2023-11-04T03:38:05.122Z,84.7
2023-11-04T03:39:19.466Z,84.9
2023-11-04T03:40:33.000Z,84.7
2023-11-04T03:41:47.159Z,84.7
2023-11-04T03:43:01.570Z,84.7
2023-11-04T03:44:15.894Z,84.6
2023-11-04T03:45:30.161Z,84.7
2023-11-04T03:46:44.438Z,84.9
2023-11-04T03:47:58.860Z,85.1
2023-11-04T03:49:13.172Z,84.7
2023-11-04T03:50:27.453Z,84.7
2023-11-04T03:51:41.746Z,84.7
2023-11-04T03:52:56.152Z,84.5
2023-11-04T03:54:10.475Z,84.3
2023-11-04T03:55:24.754Z,84.4
2023-11-04T03:56:39.034Z,84.3
2023-11-04T03:57:53.436Z,84.3
2023-11-04T03:59:07.776Z,84.4
2023-11-04T04:00:22.043Z,84.5
2023-11-04T04:01:36.322Z,84.6
2023-11-04T04:02:50.745Z,84.4
2023-11-04T04:04:05.066Z,84.6
2023-11-04T04:05:19.342Z,84.5
2023-11-04T04:06:33.626Z,84.7
2023-11-04T04:07:48.029Z,84.7
2023-11-04T04:09:02.357Z,84.7
2023-11-04T04:10:16.787Z,84.9
2023-11-04T04:11:31.096Z,85.1
2023-11-04T04:12:45.383Z,85
2023-11-04T04:13:59.795Z,85.2
2023-11-04T04:15:14.109Z,85.2
2023-11-04T04:16:28.393Z,85.3
2023-11-04T04:17:42.687Z,85.1
2023-11-04T04:18:57.091Z,85.1
2023-11-04T04:20:11.406Z,85.2
2023-11-04T04:21:25.693Z,85.1
2023-11-04T04:22:39.968Z,85
2023-11-04T04:23:54.378Z,84.9
2023-11-04T04:25:08.709Z,84.8
2023-11-04T04:26:22.982Z,84.8
2023-11-04T04:27:37.276Z,84.6
2023-11-04T04:28:51.666Z,84.8
2023-11-04T04:30:06.002Z,84.7
2023-11-04T04:31:20.277Z,84.9
2023-11-04T04:32:34.560Z,84.6
2023-11-04T04:33:48.976Z,84.4
2023-11-04T04:35:03.291Z,84.6
2023-11-04T04:36:17.571Z,84
2023-11-04T04:37:31.863Z,84.1
2023-11-04T04:38:46.268Z,83.8
2023-11-04T04:40:00.592Z,83.8
2023-11-04T04:41:14.929Z,83.6
2023-11-04T04:42:29.272Z,83.7
2023-11-04T04:43:43.670Z,83.5
2023-11-04T04:44:58.004Z,83.4
2023-11-04T04:46:11.368Z,83.3
2023-11-04T04:47:25.649Z,83.3
2023-11-04T04:48:40.043Z,83.1
2023-11-04T04:49:54.369Z,83.2
2023-11-04T04:51:08.657Z,83.1
2023-11-04T04:52:22.938Z,83
2023-11-04T04:53:37.337Z,82.9
2023-11-04T04:54:51.670Z,82.7
2023-11-04T04:56:05.939Z,82.6
2023-11-04T04:57:20.227Z,82
2023-11-04T04:58:34.631Z,81.9
2023-11-04T04:59:48.968Z,82
2023-11-04T05:01:03.233Z,82
2023-11-04T05:02:17.522Z,82.4
2023-11-04T05:03:31.926Z,82
2023-11-04T05:04:46.263Z,81.8
2023-11-04T05:06:00.541Z,82
2023-11-04T05:07:14.818Z,82
2023-11-04T05:08:29.220Z,82.4
2023-11-04T05:09:43.559Z,82
2023-11-04T05:10:57.839Z,82.2
2023-11-04T05:12:12.117Z,82.2
2023-11-04T05:13:26.529Z,82
2023-11-04T05:14:40.853Z,82.3
2023-11-04T05:15:55.114Z,82.6
2023-11-04T05:17:09.474Z,82.6
2023-11-04T05:18:23.870Z,82.3
2023-11-04T05:19:38.213Z,82.6
2023-11-04T05:20:51.569Z,82.3
2023-11-04T05:22:05.846Z,82.5
2023-11-04T05:23:20.256Z,82.8
2023-11-04T05:24:34.562Z,82.7
2023-11-04T05:25:48.855Z,82.4
2023-11-04T05:27:03.129Z,82.6
2023-11-04T05:28:17.546Z,82.4
2023-11-04T05:29:31.868Z,82.8
2023-11-04T05:30:46.146Z,82.6
2023-11-04T05:32:00.437Z,82.7
2023-11-04T05:33:14.829Z,82.7
2023-11-04T05:34:29.164Z,82.8
2023-11-04T05:36:57.717Z,82.6
2023-11-04T05:38:12.131Z,82.5
2023-11-04T05:39:26.453Z,82.3
2023-11-04T05:41:55.023Z,82.5
2023-11-04T05:43:09.431Z,82.3
2023-11-04T05:44:23.747Z,82.4
2023-11-04T05:45:38.026Z,82.6
2023-11-04T05:46:52.313Z,82.4
2023-11-04T05:49:20.994Z,82.5
2023-11-04T05:50:35.266Z,82.5
2023-11-04T05:51:49.608Z,82.6
2023-11-04T05:53:04.004Z,82.6
2023-11-04T05:54:18.346Z,82.6
2023-11-04T05:55:31.700Z,82.8
2023-11-04T05:56:45.988Z,82.7
2023-11-04T05:58:00.327Z,82.8
2023-11-04T05:59:14.577Z,83
2023-11-04T06:00:28.809Z,83.1
2023-11-04T06:01:43.136Z,83.2
2023-11-04T06:02:57.353Z,83.2
2023-11-04T06:04:11.651Z,83.4
2023-11-04T06:05:25.901Z,83.6
2023-11-04T06:06:40.112Z,83.5
2023-11-04T06:07:54.343Z,83.5
2023-11-04T06:09:08.581Z,83.3
2023-11-04T06:10:22.881Z,83.4
2023-11-04T06:11:37.110Z,83.4
2023-11-04T06:12:51.336Z,83.5
2023-11-04T06:14:05.562Z,83.5
2023-11-04T06:15:19.790Z,83.8
2023-11-04T06:16:34.089Z,83.8
2023-11-04T06:17:48.338Z,84
2023-11-04T06:19:02.553Z,84
2023-11-04T06:20:16.780Z,84
2023-11-04T06:21:31.018Z,84.1
2023-11-04T06:22:45.321Z,84.1
2023-11-04T06:23:59.552Z,84.4
2023-11-04T06:25:13.789Z,84.4
2023-11-04T06:26:28.059Z,84.2
2023-11-04T06:27:41.396Z,84.4
2023-11-04T06:28:55.679Z,84.7
2023-11-04T06:30:08.997Z,84.6
2023-11-04T06:31:23.206Z,84.6
2023-11-04T06:32:37.512Z,84.7
2023-11-04T06:33:51.750Z,84.8
2023-11-04T06:35:05.983Z,84.8
2023-11-04T06:36:20.203Z,84.8
2023-11-04T06:37:34.429Z,84.8
2023-11-04T06:38:48.731Z,84.6
2023-11-04T06:40:02.976Z,84.7
2023-11-04T06:41:17.195Z,84.6
2023-11-04T06:42:31.413Z,84.6
2023-11-04T06:43:45.653Z,84.7
2023-11-04T06:44:59.955Z,84.7
2023-11-04T06:46:14.181Z,85
2023-11-04T06:47:28.413Z,85
2023-11-04T06:48:42.638Z,85.1
2023-11-04T06:49:56.869Z,85.1
2023-11-04T06:51:11.170Z,85.2
2023-11-04T06:52:25.421Z,85
2023-11-04T06:53:39.627Z,85
2023-11-04T06:54:53.871Z,84.9
2023-11-04T06:56:08.094Z,85
2023-11-04T06:57:22.392Z,85.2
2023-11-04T06:58:36.623Z,85.1
2023-11-04T06:59:50.995Z,85.3
2023-11-04T07:01:05.235Z,85.5
2023-11-04T07:02:19.456Z,85.5
2023-11-04T07:03:33.749Z,85.4
2023-11-04T07:04:47.989Z,85.6
2023-11-04T07:06:02.223Z,85.7
2023-11-04T07:07:16.453Z,85.8
2023-11-04T07:08:30.679Z,85.8
2023-11-04T07:09:44.975Z,85.9
2023-11-04T07:10:59.214Z,86
2023-11-04T07:12:13.450Z,86.3
2023-11-04T07:13:27.664Z,86.3
2023-11-04T07:14:41.901Z,86.3
2023-11-04T07:15:56.206Z,86.3
2023-11-04T07:17:10.440Z,86.6
2023-11-04T07:18:24.659Z,86.2
2023-11-04T07:19:38.884Z,86.2
2023-11-04T07:20:53.125Z,86.2
2023-11-04T07:22:07.407Z,86.1
2023-11-04T07:23:21.669Z,85.9
2023-11-04T07:24:35.879Z,85.9
2023-11-04T07:25:50.121Z,85.9
2023-11-04T07:27:04.335Z,85.6
2023-11-04T07:28:18.659Z,85.8
2023-11-04T07:29:32.873Z,85.5
2023-11-04T07:30:47.171Z,85.3
2023-11-04T07:32:00.452Z,85.2
2023-11-04T07:33:14.765Z,85.2
2023-11-04T07:34:28.997Z,85.2
2023-11-04T07:35:43.225Z,85.3
2023-11-04T07:36:57.451Z,85
2023-11-04T07:38:11.677Z,84.9
2023-11-04T07:39:25.975Z,84.8
2023-11-04T07:40:40.216Z,84.8
2023-11-04T07:41:54.451Z,84.4
2023-11-04T07:43:08.680Z,84.5
2023-11-04T07:44:22.902Z,84.4
2023-11-04T07:45:37.197Z,84.7
2023-11-04T07:46:51.442Z,83.8
2023-11-04T07:48:05.673Z,83.9
2023-11-04T07:49:19.898Z,83.2
2023-11-04T07:50:34.123Z,83
2023-11-04T07:51:48.419Z,83
2023-11-04T07:53:02.674Z,83.1
2023-11-04T07:54:16.897Z,82.9
2023-11-04T07:55:31.121Z,83
2023-11-04T07:56:45.337Z,83.2
2023-11-04T07:57:59.656Z,83.5
2023-11-04T07:59:13.891Z,83.3
2023-11-04T08:00:28.105Z,83.5
2023-11-04T08:01:42.337Z,83.2
2023-11-04T08:02:56.616Z,83.4
2023-11-04T08:04:10.930Z,83.6
2023-11-04T08:05:25.205Z,83.4
2023-11-04T08:06:38.545Z,82.7
2023-11-04T08:07:52.821Z,83.2
2023-11-04T08:09:07.133Z,83.2
2023-11-04T08:10:21.399Z,83.3
2023-11-04T08:11:35.687Z,83.3
2023-11-04T08:12:49.047Z,83.4
2023-11-04T08:14:03.334Z,83.6
2023-11-04T08:15:17.623Z,83
2023-11-04T08:16:30.918Z,82.7
2023-11-04T08:17:45.147Z,82.6
2023-11-04T08:18:59.451Z,82.1
2023-11-04T08:20:13.689Z,78.5
2023-11-04T08:21:27.917Z,76.7
2023-11-04T08:22:42.137Z,74.3
2023-11-04T08:23:56.372Z,73.8
2023-11-04T08:25:10.675Z,73.3
2023-11-04T08:26:24.912Z,74.2
2023-11-04T08:27:39.132Z,75.2
2023-11-04T08:28:53.358Z,76
2023-11-04T08:30:07.590Z,77.2
2023-11-04T08:31:21.900Z,77.6
2023-11-04T08:32:36.136Z,78.4
2023-11-04T08:33:50.481Z,79.2
2023-11-04T08:35:04.714Z,79.6
2023-11-04T08:36:18.936Z,79.4
2023-11-04T08:37:33.231Z,79.9
2023-11-04T08:38:47.485Z,78.6
2023-11-04T08:40:01.710Z,78.8
2023-11-04T08:41:15.941Z,78.6
2023-11-04T08:42:30.161Z,78.4
2023-11-04T08:43:44.453Z,78.3
2023-11-04T08:44:58.706Z,78.3
2023-11-04T08:46:12.933Z,78.6
2023-11-04T08:47:27.150Z,78.2
2023-11-04T08:49:55.684Z,79.3
2023-11-04T08:51:09.925Z,79.2
2023-11-04T08:52:24.156Z,79.5
2023-11-04T08:53:38.375Z,79.3
2023-11-04T08:54:52.591Z,79.6
2023-11-04T08:56:06.909Z,79.4
2023-11-04T08:57:21.134Z,79
2023-11-04T08:58:35.366Z,79.3
2023-11-04T08:59:49.606Z,78.8
2023-11-04T09:01:03.817Z,78.9
2023-11-04T09:02:18.120Z,78.8
2023-11-04T09:03:32.372Z,78.7
2023-11-04T09:04:46.583Z,78.7
2023-11-04T09:06:00.810Z,78.6
2023-11-04T09:07:15.063Z,78.8
2023-11-04T09:08:29.347Z,78.9
2023-11-04T09:09:43.587Z,78.9
2023-11-04T09:10:57.813Z,79.3
2023-11-04T09:12:12.179Z,78.8
2023-11-04T09:13:26.415Z,79.2
2023-11-04T09:14:40.719Z,79.2
2023-11-04T09:15:54.952Z,78.5
2023-11-04T09:17:09.172Z,79
2023-11-04T09:18:23.412Z,78.8
2023-11-04T09:19:37.635Z,78.7
2023-11-04T09:20:51.942Z,79.3
2023-11-04T09:22:06.172Z,79
2023-11-04T09:23:20.401Z,79.3
2023-11-04T09:24:34.636Z,79.2
2023-11-04T09:25:48.849Z,79
2023-11-04T09:28:17.384Z,78.8
2023-11-04T09:29:31.630Z,79
2023-11-04T09:30:45.853Z,78.9
2023-11-04T09:32:00.205Z,78.6
2023-11-04T09:33:14.498Z,79
2023-11-04T09:34:28.744Z,78.5
2023-11-04T09:35:42.957Z,78.9
2023-11-04T09:36:57.185Z,78.8
2023-11-04T09:38:11.410Z,78.8
2023-11-04T09:39:25.720Z,78.7
2023-11-04T09:40:39.963Z,78.5
2023-11-04T09:41:54.177Z,78.4
2023-11-04T09:43:08.408Z,78.3
2023-11-04T09:44:22.644Z,78.7
2023-11-04T09:45:36.934Z,79
2023-11-04T09:46:51.187Z,78.7
2023-11-04T09:48:05.406Z,78.6
2023-11-04T09:49:19.644Z,78.5
2023-11-04T09:50:33.860Z,78.4
2023-11-04T09:51:48.158Z,78.9
2023-11-04T09:53:02.408Z,78.7
2023-11-04T09:54:16.636Z,78.9
2023-11-04T09:55:30.851Z,79
2023-11-04T09:56:45.091Z,79.3
2023-11-04T09:57:59.389Z,78.8
2023-11-04T09:59:13.628Z,78.9
2023-11-04T10:00:27.858Z,78.9
2023-11-04T10:01:42.079Z,78.5
2023-11-04T10:02:56.299Z,79
2023-11-04T10:04:10.595Z,79.3
2023-11-04T10:05:24.852Z,78.7
2023-11-04T10:06:39.071Z,78.6
2023-11-04T10:07:53.305Z,78.5
2023-11-04T10:09:07.534Z,78.2
2023-11-04T10:10:21.832Z,78.3
2023-11-04T10:11:36.062Z,78.2
2023-11-04T10:12:50.300Z,78
2023-11-04T10:14:04.518Z,78
2023-11-04T10:15:18.746Z,78.2
2023-11-04T10:16:33.046Z,78
2023-11-04T10:17:47.340Z,77.9
2023-11-04T10:19:00.641Z,78.3
2023-11-04T10:20:14.874Z,78.2
2023-11-04T10:21:29.186Z,77.6
2023-11-04T10:22:43.000Z,78.3
2023-11-04T10:23:57.641Z,78.2
2023-11-04T10:25:11.857Z,78.4
2023-11-04T10:26:26.094Z,78.6
2023-11-04T10:27:40.391Z,78
2023-11-04T10:28:54.640Z,78.3
2023-11-04T10:30:08.858Z,78.6
2023-11-04T10:31:23.083Z,78.3
2023-11-04T10:32:37.316Z,77.3
2023-11-04T10:33:51.617Z,75.9
2023-11-04T10:36:20.071Z,75.8
2023-11-04T10:37:34.308Z,75.1
2023-11-04T10:38:48.529Z,75.3
2023-11-04T10:40:02.826Z,76.3
2023-11-04T10:41:17.073Z,76.6
2023-11-04T10:42:31.298Z,76.7
2023-11-04T10:43:45.526Z,76.5
2023-11-04T10:44:59.753Z,76.3
2023-11-04T10:46:14.049Z,76.5
2023-11-04T10:47:28.299Z,76.7
2023-11-04T10:48:42.521Z,76.4
2023-11-04T10:49:56.796Z,76.3
2023-11-04T10:51:10.144Z,75.5
2023-11-04T10:52:24.420Z,73.5
2023-11-04T10:53:37.727Z,71.4
2023-11-04T10:54:51.939Z,71.4
2023-11-04T10:56:06.241Z,71
2023-11-04T10:57:20.479Z,71.9
2023-11-04T10:58:34.714Z,72.1
2023-11-04T10:59:49.054Z,72.5
2023-11-04T11:01:03.294Z,72.5
2023-11-04T11:02:17.588Z,73
2023-11-04T11:03:31.828Z,73.4
2023-11-04T11:04:46.060Z,74
2023-11-04T11:06:00.280Z,74.4
2023-11-04T11:07:14.515Z,74.6
2023-11-04T11:08:28.804Z,75.1
2023-11-04T11:09:43.049Z,75
2023-11-04T11:10:57.274Z,74.8
2023-11-04T11:12:11.504Z,74.5
2023-11-04T11:13:25.725Z,73.4
2023-11-04T11:14:40.033Z,72.5
2023-11-04T11:15:54.273Z,72.5
2023-11-04T11:17:08.491Z,72.3
2023-11-04T11:18:22.712Z,72.2
2023-11-04T11:19:36.945Z,72.1
2023-11-04T11:20:51.246Z,70.5
2023-11-04T11:22:05.486Z,70.1
2023-11-04T11:23:19.722Z,71.5
2023-11-04T11:24:33.937Z,71.6
2023-11-04T11:25:48.174Z,72.2
2023-11-04T11:27:02.472Z,73.8
2023-11-04T11:28:16.709Z,73.6
2023-11-04T11:29:30.930Z,73.8
2023-11-04T11:30:45.153Z,74.5
2023-11-04T11:31:59.383Z,74.5
2023-11-04T11:33:13.689Z,74.9
2023-11-04T11:34:27.929Z,75.2
2023-11-04T11:35:42.154Z,76.3
2023-11-04T11:36:56.374Z,76.6
2023-11-04T11:38:10.617Z,76.3
2023-11-04T11:39:24.910Z,75.4
2023-11-04T11:40:39.147Z,76
2023-11-04T11:41:53.370Z,76.6
2023-11-04T11:43:07.754Z,76.2
2023-11-04T11:44:21.975Z,76.1
2023-11-04T11:45:36.277Z,76.9
2023-11-04T11:46:50.509Z,76.3
2023-11-04T11:48:04.730Z,76.4
2023-11-04T11:49:18.959Z,76.6
2023-11-04T11:50:33.200Z,76.1
2023-11-04T11:51:47.483Z,76
2023-11-04T11:53:01.726Z,75.7
2023-11-04T11:54:15.962Z,75.6
2023-11-04T11:55:30.189Z,75.8
2023-11-04T11:56:44.419Z,74.7
2023-11-04T11:57:58.720Z,74.1
2023-11-04T11:59:12.964Z,74
2023-11-04T12:00:27.177Z,72.8
2023-11-04T12:01:41.399Z,71.7
2023-11-04T12:02:55.642Z,70.2
2023-11-04T12:04:09.936Z,68.9
2023-11-04T12:05:24.183Z,69.6
2023-11-04T12:06:38.403Z,70.6
2023-11-04T12:07:52.628Z,71.2
2023-11-04T12:09:06.849Z,72.2
2023-11-04T12:10:21.163Z,72.4
2023-11-04T12:11:35.388Z,71.7
2023-11-04T12:12:49.619Z,72.3
2023-11-04T12:14:03.911Z,72.8
2023-11-04T12:15:17.240Z,73
2023-11-04T12:16:31.520Z,73.6
2023-11-04T12:17:44.816Z,73.7
2023-11-04T12:18:59.045Z,72.7
2023-11-04T12:20:13.345Z,73.2
2023-11-04T12:21:27.585Z,74
2023-11-04T12:22:41.804Z,73.3
2023-11-04T12:23:56.037Z,73.6
2023-11-04T12:25:10.261Z,73.6
2023-11-04T12:26:24.570Z,74
2023-11-04T12:27:38.798Z,73.7
2023-11-04T12:28:53.030Z,74
2023-11-04T12:30:07.259Z,74.5
2023-11-04T12:31:21.487Z,74.8
2023-11-04T12:32:35.777Z,74
2023-11-04T12:33:50.024Z,74
2023-11-04T12:35:04.254Z,74.5
2023-11-04T12:36:18.469Z,75.3
2023-11-04T12:37:32.695Z,75
2023-11-04T12:38:46.995Z,75.2
2023-11-04T12:40:01.253Z,75.3
2023-11-04T12:41:15.462Z,75
2023-11-04T12:42:29.687Z,75.6
2023-11-04T12:43:43.918Z,75.3
2023-11-04T12:46:15.104Z,75.3
2023-11-04T12:47:26.734Z,75.2
2023-11-04T12:48:41.023Z,74.8
2023-11-04T12:49:55.311Z,74.7
2023-11-04T12:51:09.603Z,75.2
2023-11-04T12:52:23.976Z,74.5
2023-11-04T12:53:38.208Z,75
2023-11-04T12:54:52.426Z,74.8
2023-11-04T12:56:06.782Z,75.2
2023-11-04T12:57:21.070Z,74.8
2023-11-04T12:58:35.317Z,74.8
2023-11-04T12:59:49.544Z,75.3
2023-11-04T13:01:03.768Z,74.8
2023-11-04T13:02:17.993Z,74.8
2023-11-04T13:03:32.298Z,74.8
2023-11-04T13:04:46.542Z,74.7
2023-11-04T13:06:00.763Z,74
2023-11-04T13:07:14.986Z,73.9
2023-11-04T13:08:29.213Z,74.1
2023-11-04T13:09:43.525Z,73.9
2023-11-04T13:10:57.759Z,74.5
2023-11-04T13:12:11.980Z,74.3
2023-11-04T13:13:26.340Z,74.3
2023-11-04T13:14:40.559Z,74
2023-11-04T13:15:54.868Z,73.6
2023-11-04T13:17:09.097Z,73.5
2023-11-04T13:18:23.485Z,73
2023-11-04T13:19:37.704Z,73.6
2023-11-04T13:20:52.045Z,73.2
2023-11-04T13:22:06.356Z,73.4
2023-11-04T13:23:20.588Z,74.1
2023-11-04T13:24:34.813Z,74.3
2023-11-04T13:25:49.000Z,75.1
2023-11-04T13:27:03.271Z,75.4
2023-11-04T13:28:17.571Z,76.7
2023-11-04T13:29:31.808Z,79.8
2023-11-04T13:30:46.033Z,79.8
2023-11-04T13:32:00.268Z,79.3
2023-11-04T13:33:14.501Z,79.4
2023-11-04T13:34:28.800Z,80.5
2023-11-04T13:35:43.034Z,81.3
2023-11-04T13:36:57.267Z,81.2
2023-11-04T13:38:11.617Z,82.5
2023-11-04T13:39:25.844Z,82.6
2023-11-04T13:40:40.129Z,82.9
2023-11-04T13:41:54.382Z,82.5
2023-11-04T13:43:08.745Z,83.4
2023-11-04T13:44:22.976Z,83.5
2023-11-04T13:45:37.334Z,84.8
2023-11-04T13:48:05.865Z,83.9
2023-11-04T13:49:20.093Z,85.3
2023-11-04T13:50:34.310Z,85.6
2023-11-04T13:51:48.548Z,86.5
2023-11-04T13:53:02.847Z,88.1
2023-11-04T13:54:17.093Z,88
2023-11-04T13:55:31.303Z,89
2023-11-04T13:56:45.543Z,89.6
2023-11-04T13:57:59.762Z,90.6
2023-11-04T13:59:14.069Z,91.1
2023-11-04T14:00:28.311Z,92
2023-11-04T14:01:42.528Z,92.5
2023-11-04T14:02:56.883Z,93.5
2023-11-04T14:04:11.110Z,93.8
2023-11-04T14:05:25.402Z,93
2023-11-04T14:06:39.645Z,93
2023-11-04T14:07:53.881Z,93.3
2023-11-04T14:09:08.106Z,94.3
2023-11-04T14:10:22.471Z,94.2
2023-11-04T14:11:36.770Z,94.4
2023-11-04T14:12:51.011Z,94.9
2023-11-04T14:14:05.236Z,95.3
2023-11-04T14:15:19.597Z,96.1
2023-11-04T14:16:33.812Z,96.4
2023-11-04T14:17:48.111Z,96.4
2023-11-04T14:19:02.349Z,96.4
2023-11-04T14:20:16.582Z,97.2
2023-11-04T14:21:30.807Z,97.2
2023-11-04T14:22:45.042Z,97.7
2023-11-04T14:23:59.342Z,97.5
2023-11-04T14:25:13.584Z,98.1
2023-11-04T14:26:27.811Z,98.3
2023-11-04T14:27:42.029Z,98.6
2023-11-04T14:28:56.267Z,99
2023-11-04T14:30:10.559Z,99.6
2023-11-04T14:31:24.804Z,100
2023-11-04T14:32:39.144Z,99.1
2023-11-04T14:33:53.378Z,99.5
2023-11-04T14:35:07.744Z,100
2023-11-04T14:36:22.043Z,100
2023-11-04T14:37:36.290Z,100
2023-11-04T14:38:50.523Z,100
2023-11-04T14:40:04.856Z,100
2023-11-04T14:41:19.091Z,100
2023-11-04T14:42:33.390Z,100
2023-11-04T14:43:47.635Z,100
2023-11-04T14:45:01.865Z,100
2023-11-04T14:46:16.080Z,100
2023-11-04T14:47:30.306Z,100
2023-11-04T14:48:44.609Z,100
2023-11-04T14:49:58.855Z,100
2023-11-04T14:51:13.086Z,100
2023-11-04T14:52:27.299Z,100
2023-11-04T14:53:41.538Z,100
2023-11-04T14:54:55.830Z,100
2023-11-04T14:56:10.075Z,100
2023-11-04T14:57:24.418Z,100
2023-11-04T14:58:38.659Z,100
2023-11-04T14:59:53.012Z,100
2023-11-04T15:01:07.330Z,100
2023-11-04T15:02:21.551Z,100
2023-11-04T15:03:35.785Z,100
2023-11-04T15:04:50.127Z,100
2023-11-04T15:06:04.365Z,100
2023-11-04T15:07:18.665Z,100
2023-11-04T15:08:32.898Z,100
2023-11-04T15:09:47.127Z,100
2023-11-04T15:11:01.353Z,100
2023-11-04T15:12:15.583Z,100
2023-11-04T15:13:29.890Z,100
2023-11-04T15:14:44.134Z,100
2023-11-04T15:15:58.343Z,100
2023-11-04T15:17:12.575Z,100
2023-11-04T15:18:26.806Z,100
2023-11-04T15:19:41.097Z,100
2023-11-04T15:20:55.350Z,100
2023-11-04T15:22:09.706Z,100
2023-11-04T15:23:23.928Z,100
2023-11-04T15:24:38.149Z,100
2023-11-04T15:25:52.451Z,100
2023-11-04T15:27:06.697Z,100
2023-11-04T15:28:20.923Z,100
2023-11-04T15:29:35.135Z,100
2023-11-04T15:30:49.372Z,100
2023-11-04T15:32:03.666Z,100
2023-11-04T15:33:17.920Z,100
2023-11-04T15:34:32.127Z,100
2023-11-04T15:35:46.363Z,100
2023-11-04T15:37:00.598Z,100
2023-11-04T15:38:14.000Z,100
2023-11-04T15:39:29.121Z,100
2023-11-04T15:40:43.355Z,100
2023-11-04T15:41:57.700Z,100
2023-11-04T15:43:11.925Z,100
2023-11-04T15:44:26.223Z,100
2023-11-04T15:45:40.471Z,100
2023-11-04T15:46:54.691Z,100
2023-11-04T15:48:08.921Z,100
2023-11-04T15:49:23.157Z,100
2023-11-04T15:50:37.453Z,100
2023-11-04T15:51:51.690Z,100
2023-11-04T15:53:05.930Z,100
2023-11-04T15:54:20.158Z,100
2023-11-04T15:55:34.369Z,100
2023-11-04T15:56:48.683Z,100
2023-11-04T15:58:02.907Z,100
2023-11-04T15:59:17.267Z,100
2023-11-04T16:00:31.493Z,100
2023-11-04T16:01:45.714Z,100
2023-11-04T16:03:00.007Z,100
2023-11-04T16:04:14.259Z,100
2023-11-04T16:05:28.490Z,100
2023-11-04T16:06:42.721Z,100
2023-11-04T16:07:56.946Z,100
2023-11-04T16:09:11.240Z,100
2023-11-04T16:10:25.489Z,100
2023-11-04T16:11:39.000Z,100
2023-11-04T16:12:53.923Z,100
2023-11-04T16:14:08.168Z,100
2023-11-04T16:15:22.456Z,100
2023-11-04T16:16:36.757Z,100
2023-11-04T16:17:50.973Z,100
2023-11-04T16:19:05.330Z,100
2023-11-04T16:20:19.553Z,100
2023-11-04T16:21:33.911Z,100
2023-11-04T16:22:48.227Z,100
2023-11-04T16:24:02.525Z,100
2023-11-04T16:25:16.786Z,100
2023-11-04T16:26:31.204Z,100
2023-11-04T16:27:45.495Z,100
2023-11-04T16:28:59.782Z,100
2023-11-04T16:30:14.059Z,100
2023-11-04T16:31:28.464Z,100
2023-11-04T16:32:42.772Z,100
2023-11-04T16:33:57.053Z,100
2023-11-04T16:35:11.334Z,100
2023-11-04T16:36:25.732Z,100
2023-11-04T16:37:40.068Z,100
2023-11-04T16:38:54.453Z,100
2023-11-04T16:40:08.793Z,100
2023-11-04T16:41:23.070Z,100
2023-11-04T16:42:37.486Z,100
2023-11-04T16:43:51.808Z,100
2023-11-04T16:45:06.083Z,100
2023-11-04T16:46:20.363Z,100
2023-11-04T16:47:34.780Z,99.6
2023-11-04T16:48:49.099Z,100
2023-11-04T16:50:03.368Z,100